Time;durP1;ratioP1;P1;durP2;ratioP2;P2;SDS_P1;SDS_P2;PMS_P1;PMS_P2;Temp;Humidity;BMP_temperature;BMP_pressure;BME280_temperature;BME280_humidity;BME280_pressure;Samples;Min_cycle;Max_cycle;Signal;HPM_P1;HPM_P2
2021/03/10 00:00:51;;;;;;;24.58;8.25;;;;;;;14.31;72.60;100594.00;5008863;28;20038;-67
2021/03/10 00:03:19;;;;;;;36.80;9.30;;;;;;;14.21;72.41;100586.97;4991715;28;20469;-67
2021/03/10 00:05:45;;;;;;;27.50;9.60;;;;;;;14.30;72.47;100597.59;5008977;28;20046;-68
2021/03/10 00:08:13;;;;;;;28.38;8.48;;;;;;;14.31;72.35;100597.56;5009851;28;20033;-67
2021/03/10 00:10:40;;;;;;;24.65;8.77;;;;;;;14.20;72.52;100604.66;5009301;28;20052;-68
2021/03/10 00:13:08;;;;;;;32.70;8.45;;;;;;;14.11;72.84;100599.38;5009643;28;20509;-68
2021/03/10 00:15:35;;;;;;;29.67;9.60;;;;;;;14.19;72.49;100602.91;5009034;28;20498;-68
2021/03/10 00:18:04;;;;;;;27.40;7.82;;;;;;;14.19;72.46;100605.56;5010112;28;20042;-68
2021/03/10 00:20:31;;;;;;;28.75;9.73;;;;;;;14.19;72.35;100608.22;5009171;28;20044;-67
2021/03/10 00:22:58;;;;;;;28.90;8.85;;;;;;;14.01;72.74;100600.28;5009773;28;20173;-68
2021/03/10 00:25:25;;;;;;;28.35;9.25;;;;;;;14.07;72.75;100594.06;5009533;28;20042;-68
2021/03/10 00:27:52;;;;;;;33.38;16.10;;;;;;;14.10;72.70;100587.00;5008928;28;20084;-67
2021/03/10 00:30:19;;;;;;;31.17;9.82;;;;;;;13.84;73.08;100589.69;5009639;28;20050;-67
2021/03/10 00:32:46;;;;;;;43.28;10.18;;;;;;;13.77;72.97;100581.72;5008650;28;20417;-68
2021/03/10 00:35:14;;;;;;;33.38;9.40;;;;;;;13.89;72.58;100576.41;5009486;28;20038;-68
2021/03/10 00:37:41;;;;;;;33.17;8.60;;;;;;;13.86;72.72;100574.63;5009371;28;20129;-67
2021/03/10 00:40:09;;;;;;;30.35;8.52;;;;;;;13.87;73.00;100583.47;5009926;28;20491;-67
2021/03/10 00:42:36;;;;;;;35.15;9.10;;;;;;;13.76;74.12;100582.59;5008739;28;20030;-67
2021/03/10 00:45:04;;;;;;;35.50;10.35;;;;;;;13.77;74.22;100573.78;5009331;28;20513;-67
2021/03/10 00:47:30;;;;;;;30.95;9.80;;;;;;;13.76;73.99;100577.31;5008600;28;20077;-68
2021/03/10 00:49:58;;;;;;;28.75;8.25;;;;;;;13.69;73.71;100565.81;5009216;28;20116;-67
2021/03/10 00:52:26;;;;;;;32.45;9.98;;;;;;;13.68;73.48;100568.47;5009761;28;20034;-67
2021/03/10 00:54:53;;;;;;;24.02;8.85;;;;;;;13.52;73.51;100568.44;5009130;28;20046;-68
2021/03/10 00:57:20;;;;;;;29.58;8.90;;;;;;;13.53;73.47;100570.22;5009437;28;20520;-67
2021/03/10 00:59:47;;;;;;;34.05;10.45;;;;;;;13.54;73.61;100568.44;4991649;28;20046;-67
2021/03/10 01:02:14;;;;;;;31.02;8.63;;;;;;;13.54;73.37;100563.16;5009563;28;20384;-67
2021/03/10 01:04:41;;;;;;;29.98;8.35;;;;;;;13.62;73.32;100571.13;5008800;28;20038;-67
2021/03/10 01:07:08;;;;;;;36.03;10.50;;;;;;;13.59;73.58;100564.03;5009118;28;20141;-67
2021/03/10 01:09:37;;;;;;;32.28;8.43;;;;;;;13.57;73.53;100566.69;5008788;28;20129;-67
2021/03/10 01:12:04;;;;;;;33.90;9.60;;;;;;;13.48;73.68;100550.78;5010604;28;20046;-68
2021/03/10 01:14:31;;;;;;;40.40;15.23;;;;;;;13.44;74.00;100553.44;5012227;28;20050;-67
2021/03/10 01:16:58;;;;;;;47.03;11.45;;;;;;;13.37;74.07;100559.63;5012422;28;20034;-67
2021/03/10 01:19:25;;;;;;;34.20;8.70;;;;;;;13.37;73.64;100557.84;5012881;28;20516;-67
2021/03/10 01:21:52;;;;;;;35.75;9.07;;;;;;;13.39;73.42;100557.84;5012726;28;20723;-66
2021/03/10 01:24:20;;;;;;;23.00;8.35;;;;;;;13.35;73.22;100554.31;5012502;28;20659;-68
2021/03/10 01:26:48;;;;;;;30.60;8.85;;;;;;;13.33;74.00;100557.81;5012013;28;20054;-67
2021/03/10 01:29:15;;;;;;;38.95;11.63;;;;;;;13.29;74.35;100556.94;5012214;28;20136;-67
2021/03/10 01:31:42;;;;;;;34.75;11.80;;;;;;;13.32;74.47;100564.91;5011340;28;20133;-67
2021/03/10 01:34:10;;;;;;;33.08;10.52;;;;;;;13.29;74.35;100567.56;5012447;28;20137;-67
2021/03/10 01:36:37;;;;;;;38.88;8.88;;;;;;;13.34;74.42;100568.44;5011540;28;20541;-68
2021/03/10 01:39:04;;;;;;;25.27;8.65;;;;;;;13.45;74.06;100572.00;5012543;28;20173;-67
2021/03/10 01:41:31;;;;;;;30.75;9.63;;;;;;;13.42;74.18;100571.09;5011901;28;20046;-68
2021/03/10 01:44:00;;;;;;;31.73;8.82;;;;;;;13.48;74.15;100574.63;5012234;28;20120;-67
2021/03/10 01:46:34;;;;;;;30.15;8.35;;;;;;;13.46;74.05;100584.34;5012164;28;20060;-68
2021/03/10 01:49:01;;;;;;;30.92;9.48;;;;;;;13.31;73.86;100581.72;5012387;28;20410;-66
2021/03/10 01:51:29;;;;;;;37.53;9.23;;;;;;;13.36;74.44;100584.34;5012057;28;20692;-68
2021/03/10 01:53:56;;;;;;;38.17;10.05;;;;;;;13.45;74.91;100569.34;5012046;28;20731;-68
2021/03/10 01:56:26;;;;;;;36.15;9.77;;;;;;;13.53;74.92;100575.53;5011896;28;20044;-67
2021/03/10 01:58:54;;;;;;;31.17;9.77;;;;;;;13.56;75.01;100578.19;5011782;28;20041;-68
2021/03/10 02:01:22;;;;;;;34.25;10.02;;;;;;;13.51;74.77;100585.25;5011441;28;20129;-68
2021/03/10 02:03:49;;;;;;;35.55;7.75;;;;;;;13.43;74.58;100565.81;5011395;28;20570;-67
2021/03/10 02:06:26;;;;;;;39.42;11.45;;;;;;;13.53;74.63;100570.22;5012212;28;20410;-67
2021/03/10 02:08:59;;;;;;;38.67;10.73;;;;;;;13.57;74.69;100571.13;5011509;28;20044;-66
2021/03/10 02:11:33;;;;;;;37.20;10.98;;;;;;;13.41;75.16;100567.56;5011376;28;20046;-69
2021/03/10 02:14:13;;;;;;;31.67;11.82;;;;;;;13.46;76.14;100563.13;5012062;28;20042;-67
2021/03/10 02:16:48;;;;;;;29.75;10.15;;;;;;;13.47;76.00;100570.22;5011081;28;20041;-67
2021/03/10 02:19:50;;;;;;;31.88;8.82;;;;;;;13.33;75.64;100573.72;5011809;28;20045;-68
2021/03/10 02:22:32;;;;;;;34.38;10.05;;;;;;;13.34;75.49;100562.25;5011256;28;20060;-67
2021/03/10 02:25:09;;;;;;;35.72;8.98;;;;;;;13.41;75.15;100559.59;5011015;28;20125;-67
2021/03/10 02:27:47;;;;;;;38.10;10.50;;;;;;;13.40;75.12;100552.53;5011429;28;20037;-67
2021/03/10 02:30:18;;;;;;;27.85;10.23;;;;;;;13.47;75.27;100553.41;5011587;28;20136;-67
2021/03/10 02:32:52;;;;;;;33.70;9.63;;;;;;;13.46;75.17;100547.22;5011012;28;20472;-67
2021/03/10 02:35:20;;;;;;;29.75;9.63;;;;;;;13.45;75.11;100544.59;5009411;28;20124;-68
2021/03/10 02:37:49;;;;;;;30.40;9.05;;;;;;;13.42;75.12;100526.03;5010893;28;20145;-67
2021/03/10 02:40:18;;;;;;;39.08;9.18;;;;;;;13.42;75.24;100518.06;5011308;28;20721;-67
2021/03/10 02:42:47;;;;;;;36.13;8.52;;;;;;;13.47;75.29;100522.47;5010472;28;20463;-67
2021/03/10 02:45:14;;;;;;;33.03;8.50;;;;;;;13.49;75.28;100520.72;5011076;28;20165;-69
2021/03/10 02:47:42;;;;;;;36.28;8.68;;;;;;;13.49;75.39;100499.50;5010312;28;20046;-67
2021/03/10 02:50:12;;;;;;;32.88;8.93;;;;;;;13.52;75.33;100498.63;5010738;28;20032;-67
2021/03/10 02:52:40;;;;;;;32.10;9.65;;;;;;;13.46;75.49;100503.91;5009601;28;20045;-67
2021/03/10 02:55:09;;;;;;;42.33;9.75;;;;;;;13.46;75.75;100517.16;5011075;28;20424;-67
2021/03/10 02:57:37;;;;;;;35.25;9.57;;;;;;;13.39;75.71;100532.19;5010815;28;20133;-67
2021/03/10 03:00:08;;;;;;;23.83;7.95;;;;;;;13.37;75.46;100541.94;5010959;28;20113;-67
2021/03/10 03:02:37;;;;;;;34.35;9.30;;;;;;;13.38;75.49;100549.03;5010776;28;20041;-67
2021/03/10 03:05:06;;;;;;;47.78;19.20;;;;;;;13.36;75.72;100544.59;5010795;28;20034;-67
2021/03/10 03:07:33;;;;;;;29.67;9.80;;;;;;;13.29;75.89;100558.72;5010333;28;20042;-67
2021/03/10 03:10:01;;;;;;;45.60;9.77;;;;;;;13.34;75.80;100570.19;5010353;28;20030;-68
2021/03/10 03:12:29;;;;;;;37.28;12.55;;;;;;;13.35;75.83;100570.22;5010386;28;20133;-67
2021/03/10 03:14:58;;;;;;;33.55;9.60;;;;;;;13.41;75.96;100574.63;5010748;28;20044;-67
2021/03/10 03:17:27;;;;;;;45.08;13.68;;;;;;;13.42;75.90;100577.28;5010645;28;20129;-67
2021/03/10 03:19:54;;;;;;;33.05;10.98;;;;;;;13.22;76.12;100579.03;5010021;28;20056;-67
2021/03/10 03:22:21;;;;;;;37.20;8.80;;;;;;;13.25;76.01;100580.81;5010714;28;20514;-67
2021/03/10 03:24:50;;;;;;;33.83;9.88;;;;;;;13.24;76.15;100594.94;5009848;28;20121;-67
2021/03/10 03:27:25;;;;;;;38.13;8.73;;;;;;;13.22;76.28;100594.94;5010489;28;20483;-66
2021/03/10 03:29:55;;;;;;;31.20;9.98;;;;;;;13.35;77.11;100594.06;5010091;28;20068;-67
2021/03/10 03:32:23;;;;;;;43.70;14.40;;;;;;;13.40;77.29;100592.31;5010630;28;20042;-67
2021/03/10 03:34:52;;;;;;;45.45;11.82;;;;;;;13.41;77.19;100591.44;5008840;28;20537;-67
2021/03/10 03:37:19;;;;;;;43.97;12.68;;;;;;;13.42;76.95;100598.50;5010302;28;20049;-67
2021/03/10 03:39:47;;;;;;;34.55;12.02;;;;;;;13.43;76.76;100597.63;5009501;28;20038;-68
2021/03/10 03:42:14;;;;;;;43.28;13.88;;;;;;;13.40;76.45;100592.31;5009931;28;20042;-67
2021/03/10 03:44:41;;;;;;;28.20;8.68;;;;;;;13.41;76.25;100590.53;5009931;28;20038;-67
2021/03/10 03:47:09;;;;;;;38.78;9.02;;;;;;;13.34;76.27;100579.03;5010420;28;20042;-68
2021/03/10 03:49:37;;;;;;;27.85;8.32;;;;;;;13.22;76.37;100572.84;5009237;28;20092;-68
2021/03/10 03:52:06;;;;;;;26.77;8.52;;;;;;;13.23;76.70;100574.59;5010324;28;20034;-68
2021/03/10 03:54:33;;;;;;;33.65;9.15;;;;;;;13.31;76.80;100575.53;5010006;28;20029;-67
2021/03/10 03:56:59;;;;;;;26.45;8.95;;;;;;;13.31;76.70;100573.75;5010640;28;20121;-67
2021/03/10 03:59:26;;;;;;;45.78;9.68;;;;;;;13.35;76.66;100575.50;5009522;28;20064;-68
2021/03/10 04:01:54;;;;;;;27.08;8.73;;;;;;;13.38;76.44;100566.69;5009981;28;20096;-67
2021/03/10 04:04:21;;;;;;;35.08;8.50;;;;;;;13.37;76.61;100573.75;5010236;28;20042;-67
2021/03/10 04:06:49;;;;;;;39.38;11.70;;;;;;;13.40;77.10;100576.41;5009818;28;20054;-68
2021/03/10 04:09:17;;;;;;;31.02;8.55;;;;;;;13.40;77.11;100587.00;5009567;28;20085;-67
2021/03/10 04:11:44;;;;;;;55.38;21.92;;;;;;;13.38;77.15;100599.41;5009544;28;20034;-67
2021/03/10 04:14:12;;;;;;;33.03;12.75;;;;;;;13.39;76.99;100594.97;5009567;28;20108;-68
2021/03/10 04:16:39;;;;;;;39.78;10.63;;;;;;;13.45;76.79;100589.69;5009144;28;20574;-68
2021/03/10 04:19:06;;;;;;;35.30;9.70;;;;;;;13.49;76.54;100594.97;5008666;28;20132;-67
2021/03/10 04:21:34;;;;;;;41.08;12.30;;;;;;;13.49;76.24;100600.28;5009333;28;20045;-68
2021/03/10 04:24:01;;;;;;;29.27;8.68;;;;;;;13.48;76.12;100598.50;5010247;28;20164;-67
2021/03/10 04:26:29;;;;;;;42.13;9.50;;;;;;;13.48;76.26;100592.31;5009363;28;20119;-68
2021/03/10 04:28:56;;;;;;;31.85;10.10;;;;;;;13.45;76.38;100603.81;5009419;28;20742;-67
2021/03/10 04:31:23;;;;;;;33.35;8.63;;;;;;;13.46;76.46;100612.63;5009513;28;20044;-67
2021/03/10 04:33:51;;;;;;;37.95;8.52;;;;;;;13.49;76.49;100615.31;5009033;28;20038;-67
2021/03/10 04:36:17;;;;;;;43.63;10.90;;;;;;;13.59;77.00;100608.25;5009351;28;20038;-67
2021/03/10 04:38:44;;;;;;;38.40;9.65;;;;;;;13.61;77.24;100603.81;5009133;28;20045;-67
2021/03/10 04:41:11;;;;;;;28.27;9.07;;;;;;;13.60;77.30;100608.22;5010049;28;20529;-67
2021/03/10 04:43:40;;;;;;;28.20;9.00;;;;;;;13.58;77.32;100604.72;5008899;28;20499;-66
2021/03/10 04:46:07;;;;;;;40.45;12.48;;;;;;;13.57;77.13;100606.50;5009816;28;20125;-67
2021/03/10 04:48:34;;;;;;;34.30;14.30;;;;;;;13.55;76.89;100617.97;5012882;28;20068;-67
2021/03/10 04:51:01;;;;;;;38.53;11.80;;;;;;;13.52;76.91;100624.13;5013427;28;20049;-67
2021/03/10 04:53:28;;;;;;;32.60;9.95;;;;;;;13.52;76.90;100623.28;5012739;28;20038;-68
2021/03/10 04:55:55;;;;;;;36.95;10.48;;;;;;;13.47;76.85;100615.28;5013033;28;20394;-67
2021/03/10 04:58:22;;;;;;;40.60;10.20;;;;;;;13.46;77.08;100607.34;5013164;28;20447;-67
2021/03/10 05:00:50;;;;;;;31.67;10.52;;;;;;;13.51;77.33;100616.19;5012525;28;20037;-67
2021/03/10 05:03:17;;;;;;;41.90;11.00;;;;;;;13.56;77.25;100620.63;5012735;28;20132;-67
2021/03/10 05:05:44;;;;;;;36.28;11.18;;;;;;;13.58;77.11;100617.97;5012548;28;20034;-67
2021/03/10 05:08:11;;;;;;;40.30;10.45;;;;;;;13.63;76.87;100631.25;5013013;28;20045;-68
2021/03/10 05:10:39;;;;;;;37.63;9.88;;;;;;;13.60;76.81;100631.22;5012817;28;20450;-67
2021/03/10 05:13:05;;;;;;;44.35;10.20;;;;;;;13.72;76.77;100632.13;5012869;28;20084;-68
2021/03/10 05:15:33;;;;;;;40.10;9.98;;;;;;;13.84;76.71;100633.91;5012480;28;20046;-67
2021/03/10 05:18:01;;;;;;;37.33;9.77;;;;;;;13.98;76.65;100628.59;4995495;28;20426;-67
2021/03/10 05:20:28;;;;;;;52.63;20.80;;;;;;;14.04;76.81;100623.28;5012747;28;20619;-67
2021/03/10 05:22:55;;;;;;;43.50;17.50;;;;;;;14.13;76.71;100632.13;5012577;28;20528;-68
2021/03/10 05:25:22;;;;;;;36.88;10.38;;;;;;;14.22;76.55;100628.56;4995596;28;20079;-67
2021/03/10 05:27:49;;;;;;;36.92;10.02;;;;;;;14.32;76.27;100632.97;5011950;28;20503;-67
2021/03/10 05:30:17;;;;;;;39.20;9.55;;;;;;;14.34;76.33;100637.41;5012996;28;20034;-67
2021/03/10 05:32:44;;;;;;;31.02;10.15;;;;;;;14.46;76.50;100639.16;5011965;28;20129;-67
2021/03/10 05:35:13;;;;;;;34.97;10.63;;;;;;;14.64;76.42;100624.94;5012480;28;20057;-68
2021/03/10 05:37:41;;;;;;;40.55;10.70;;;;;;;14.67;76.53;100619.63;4994646;28;20129;-68
2021/03/10 05:40:09;;;;;;;34.42;10.68;;;;;;;14.77;76.62;100622.25;5012779;28;20536;-67
2021/03/10 05:42:40;;;;;;;30.35;11.45;;;;;;;14.77;76.42;100629.31;5011317;28;20125;-67
2021/03/10 05:45:09;;;;;;;41.22;13.45;;;;;;;14.75;76.38;100642.66;5012532;28;20034;-68
2021/03/10 05:47:36;;;;;;;43.70;15.73;;;;;;;14.73;76.52;100640.88;5010801;28;20586;-67
2021/03/10 05:50:03;;;;;;;39.13;15.10;;;;;;;14.87;76.56;100638.16;5011185;28;20200;-67
2021/03/10 05:52:36;;;;;;;53.92;16.08;;;;;;;15.02;76.49;100649.63;5011815;28;20406;-67
2021/03/10 05:55:05;;;;;;;65.85;38.08;;;;;;;15.01;76.73;100655.84;5011763;28;20522;-67
2021/03/10 05:57:32;;;;;;;40.08;20.27;;;;;;;15.01;76.97;100650.50;5011431;28;20042;-68
2021/03/10 05:59:59;;;;;;;37.45;17.30;;;;;;;15.06;77.21;100662.00;5010869;28;20375;-67
2021/03/10 06:02:27;;;;;;;39.00;16.25;;;;;;;15.20;77.41;100659.28;5011327;28;20121;-67
2021/03/10 06:04:54;;;;;;;40.42;15.98;;;;;;;15.30;77.31;100657.44;5011727;28;20048;-68
2021/03/10 06:07:23;;;;;;;43.13;17.33;;;;;;;15.50;77.64;100658.22;5012064;28;20042;-67
2021/03/10 06:09:58;;;;;;;54.20;23.50;;;;;;;15.67;78.03;100659.03;5011415;28;20049;-67
2021/03/10 06:12:26;;;;;;;36.97;14.32;;;;;;;15.78;77.93;100666.94;4997792;28;20133;-67
2021/03/10 06:15:00;;;;;;;32.35;12.93;;;;;;;16.03;77.93;100670.28;5010905;28;20045;-67
2021/03/10 06:17:27;;;;;;;38.15;11.30;;;;;;;16.31;77.76;100671.81;5010334;28;20044;-68
2021/03/10 06:19:54;;;;;;;31.77;11.57;;;;;;;16.44;77.65;100673.47;5007223;28;20038;-67
2021/03/10 06:22:22;;;;;;;31.60;12.65;;;;;;;16.51;77.29;100660.97;5011758;28;20045;-67
2021/03/10 06:25:02;;;;;;;34.70;12.90;;;;;;;16.50;77.22;100668.09;5006585;28;20136;-67
2021/03/10 06:27:29;;;;;;;36.28;16.88;;;;;;;16.59;77.07;100672.44;5011625;28;20068;-68
2021/03/10 06:29:57;;;;;;;48.08;17.98;;;;;;;16.58;76.96;100668.00;5011557;28;20045;-68
2021/03/10 06:32:24;;;;;;;39.67;16.50;;;;;;;16.73;76.74;100671.44;5011994;28;20046;-67
2021/03/10 06:34:52;;;;;;;39.75;16.10;;;;;;;17.08;76.70;100668.34;5011003;28;20050;-68
2021/03/10 06:37:28;;;;;;;38.78;14.48;;;;;;;17.33;76.61;100666.22;5010836;28;20045;-67
2021/03/10 06:40:08;;;;;;;34.30;14.48;;;;;;;17.41;76.65;100669.69;5011200;28;20061;-68
2021/03/10 06:42:35;;;;;;;42.60;13.80;;;;;;;17.50;76.80;100672.22;5011127;28;20491;-68
2021/03/10 06:45:02;;;;;;;40.45;14.98;;;;;;;17.63;76.88;100683.66;5011171;28;20502;-68
2021/03/10 06:47:37;;;;;;;31.48;12.18;;;;;;;17.99;76.84;100682.19;5010425;28;20486;-68
2021/03/10 06:50:06;;;;;;;28.75;13.63;;;;;;;18.27;76.31;100683.50;5020879;28;20099;-68
2021/03/10 06:52:34;;;;;;;31.27;11.95;;;;;;;18.39;75.28;100679.72;5002979;28;20121;-69
2021/03/10 06:55:02;;;;;;;30.30;11.55;;;;;;;18.36;75.41;100687.81;5011068;28;20038;-67
2021/03/10 06:57:30;;;;;;;32.30;10.88;;;;;;;18.44;75.28;100688.56;5018702;28;20069;-67
2021/03/10 06:59:58;;;;;;;25.92;8.07;;;;;;;18.49;75.35;100691.16;5010690;28;20083;-68
2021/03/10 07:02:27;;;;;;;25.38;8.93;;;;;;;18.67;74.97;100693.50;5026936;28;20129;-67
2021/03/10 07:04:56;;;;;;;35.30;9.77;;;;;;;18.84;74.81;100687.88;5016444;28;20491;-67
2021/03/10 07:07:24;;;;;;;32.10;13.10;;;;;;;19.02;74.80;100685.69;5010988;28;20046;-67
2021/03/10 07:09:51;;;;;;;29.30;13.52;;;;;;;19.35;74.89;100696.63;5010053;28;20499;-67
2021/03/10 07:12:19;;;;;;;26.48;12.23;;;;;;;19.66;74.04;100697.72;5016839;28;20132;-67
2021/03/10 07:14:47;;;;;;;23.73;7.60;;;;;;;19.96;73.60;100697.91;5015347;28;20046;-68
2021/03/10 07:17:16;;;;;;;21.90;6.85;;;;;;;20.19;72.74;100700.94;5017083;28;20026;-67
2021/03/10 07:19:44;;;;;;;27.10;6.30;;;;;;;20.33;71.48;100703.31;5010188;28;20132;-68
2021/03/10 07:22:15;;;;;;;27.83;6.72;;;;;;;20.49;69.96;100694.81;5010551;28;20034;-68
2021/03/10 07:24:49;;;;;;;24.13;6.68;;;;;;;20.56;68.83;100699.09;5010336;28;20110;-68
2021/03/10 07:27:18;;;;;;;29.23;7.30;;;;;;;20.66;68.74;100703.31;5014595;28;20088;-68
2021/03/10 07:29:46;;;;;;;22.50;6.22;;;;;;;20.83;68.71;100693.91;5009390;28;20052;-67
2021/03/10 07:32:23;;;;;;;24.00;6.00;;;;;;;20.97;67.86;100692.59;5010516;28;20040;-67
2021/03/10 07:35:00;;;;;;;19.75;6.00;;;;;;;20.97;66.81;100694.41;5009563;28;20184;-67
2021/03/10 07:37:28;;;;;;;19.05;5.50;;;;;;;21.02;67.07;100685.28;5010302;28;20048;-67
2021/03/10 07:40:09;;;;;;;22.75;6.10;;;;;;;21.05;66.18;100685.22;5029734;28;20041;-68
2021/03/10 07:42:36;;;;;;;20.63;5.95;;;;;;;20.99;66.53;100684.53;5006538;28;20118;-67
2021/03/10 07:45:05;;;;;;;28.27;6.57;;;;;;;20.88;66.10;100687.50;4983773;28;20119;-67
2021/03/10 07:47:33;;;;;;;26.05;5.90;;;;;;;20.95;65.86;100689.06;4993254;28;20057;-67
2021/03/10 07:50:01;;;;;;;24.50;5.47;;;;;;;21.15;64.91;100688.50;4992576;28;20038;-68
2021/03/10 07:52:29;;;;;;;22.40;4.95;;;;;;;20.94;64.43;100686.44;5007669;28;20069;-68
2021/03/10 07:54:57;;;;;;;20.60;7.18;;;;;;;20.87;64.79;100688.41;5008394;28;20095;-67
2021/03/10 07:57:24;;;;;;;19.48;5.65;;;;;;;20.99;64.70;100688.09;4992719;28;20069;-68
2021/03/10 07:59:56;;;;;;;21.27;5.22;;;;;;;21.06;63.74;100678.06;5006713;28;20056;-67
2021/03/10 08:02:23;;;;;;;19.40;5.78;;;;;;;21.24;64.03;100690.97;5008357;28;20532;-68
2021/03/10 08:04:57;;;;;;;21.02;6.05;;;;;;;21.78;63.18;100692.91;5008960;28;20069;-68
2021/03/10 08:07:25;;;;;;;20.92;6.68;;;;;;;21.95;62.03;100690.56;5008661;28;20050;-68
2021/03/10 08:09:54;;;;;;;24.50;6.55;;;;;;;22.08;61.66;100689.25;5008749;28;20051;-67
2021/03/10 08:12:33;;;;;;;31.80;11.50;;;;;;;22.12;61.62;100690.06;4999134;28;20053;-68
2021/03/10 08:15:00;;;;;;;27.08;7.93;;;;;;;22.41;61.82;100681.88;4989185;28;20125;-67
2021/03/10 08:17:28;;;;;;;27.67;6.03;;;;;;;22.81;61.28;100688.56;4989768;28;20070;-67
2021/03/10 08:19:57;;;;;;;24.23;6.28;;;;;;;22.98;60.60;100678.94;5012380;28;20034;-68
2021/03/10 08:22:26;;;;;;;22.95;5.72;;;;;;;23.07;60.67;100675.03;5022758;28;20042;-68
2021/03/10 08:24:53;;;;;;;17.65;6.07;;;;;;;22.89;60.10;100681.09;5004488;28;20049;-67
2021/03/10 08:27:30;;;;;;;21.48;5.45;;;;;;;22.69;60.02;100680.91;5005985;28;20034;-67
2021/03/10 08:29:58;;;;;;;26.77;6.35;;;;;;;22.53;59.79;100670.69;5001127;28;20803;-68
2021/03/10 08:32:27;;;;;;;21.15;6.03;;;;;;;22.78;59.64;100681.47;5009138;28;20046;-68
2021/03/10 08:35:00;;;;;;;23.83;6.38;;;;;;;23.03;59.20;100674.28;5020876;28;20038;-68
2021/03/10 08:37:27;;;;;;;20.67;5.30;;;;;;;23.34;58.62;100682.09;4997458;28;20499;-68
2021/03/10 08:39:55;;;;;;;23.90;8.60;;;;;;;23.58;58.22;100679.41;5001498;28;20431;-69
2021/03/10 08:42:23;;;;;;;23.42;8.52;;;;;;;23.68;57.79;100687.06;4959883;28;20129;-69
2021/03/10 08:44:52;;;;;;;26.77;7.72;;;;;;;23.27;57.36;100687.75;4998224;28;20128;-69
2021/03/10 08:47:22;;;;;;;19.83;5.50;;;;;;;22.86;57.66;100691.97;5002180;28;20044;-68
2021/03/10 08:49:53;;;;;;;21.88;5.80;;;;;;;22.98;57.77;100686.13;4994069;28;20107;-69
2021/03/10 08:52:21;;;;;;;21.73;5.57;;;;;;;23.07;57.26;100679.53;5005406;28;20490;-69
2021/03/10 08:54:53;;;;;;;32.45;9.15;;;;;;;23.33;57.08;100676.75;4989935;28;20054;-69
2021/03/10 08:57:23;;;;;;;27.10;9.80;;;;;;;23.73;56.43;100676.97;4999861;28;20057;-69
2021/03/10 08:59:50;;;;;;;21.85;5.28;;;;;;;23.70;55.84;100674.41;5001992;28;20039;-69
2021/03/10 09:02:25;;;;;;;23.33;6.20;;;;;;;23.82;55.96;100673.94;5001506;28;20046;-69
2021/03/10 09:04:52;;;;;;;31.90;6.30;;;;;;;23.56;55.72;100671.41;5001746;28;20048;-68
2021/03/10 09:07:23;;;;;;;26.42;5.85;;;;;;;23.57;56.15;100681.22;5004941;28;20731;-67
2021/03/10 09:09:54;;;;;;;25.50;5.32;;;;;;;23.61;55.40;100677.47;5018828;28;20048;-68
2021/03/10 09:12:24;;;;;;;28.63;7.10;;;;;;;23.55;55.62;100680.41;5008716;28;20172;-68
2021/03/10 09:14:53;;;;;;;20.13;5.38;;;;;;;23.83;55.81;100677.47;5011595;28;20048;-68
2021/03/10 09:17:31;;;;;;;18.55;5.47;;;;;;;24.07;54.93;100681.88;5011209;28;20042;-68
2021/03/10 09:20:02;;;;;;;21.98;5.80;;;;;;;24.00;55.26;100674.09;5010686;28;20133;-68
2021/03/10 09:22:31;;;;;;;19.10;6.22;;;;;;;24.17;54.77;100676.97;5009398;28;20486;-69
2021/03/10 09:25:00;;;;;;;21.85;6.10;;;;;;;24.42;54.25;100674.16;5010359;28;20034;-68
2021/03/10 09:27:28;;;;;;;18.23;5.90;;;;;;;24.56;54.22;100674.44;5008960;28;20515;-68
2021/03/10 09:29:57;;;;;;;21.40;7.50;;;;;;;24.83;53.77;100677.75;5009225;28;20045;-68
2021/03/10 09:32:25;;;;;;;20.38;5.72;;;;;;;24.83;53.27;100678.63;5011777;28;20485;-68
2021/03/10 09:34:53;;;;;;;22.05;5.55;;;;;;;24.39;53.35;100671.59;5012018;28;20495;-69
2021/03/10 09:37:25;;;;;;;21.05;5.03;;;;;;;24.09;53.76;100663.78;5011362;28;20062;-68
2021/03/10 09:39:54;;;;;;;22.15;5.15;;;;;;;23.55;54.48;100671.44;5011179;28;20034;-69
2021/03/10 09:42:28;;;;;;;21.10;5.25;;;;;;;23.24;55.04;100669.00;5011691;28;20034;-68
2021/03/10 09:44:56;;;;;;;18.90;5.70;;;;;;;22.98;55.75;100664.59;5022611;28;20045;-68
2021/03/10 09:47:26;;;;;;;21.08;5.45;;;;;;;23.15;55.97;100664.88;5015152;28;20421;-68
2021/03/10 09:49:58;;;;;;;27.55;6.47;;;;;;;23.77;55.25;100661.56;5011342;28;20587;-69
2021/03/10 09:52:33;;;;;;;23.10;7.10;;;;;;;23.86;54.13;100669.28;5014363;28;20286;-68
2021/03/10 09:55:01;;;;;;;20.83;5.00;;;;;;;23.92;53.97;100670.84;5019774;28;20820;-68
2021/03/10 09:57:29;;;;;;;21.35;6.00;;;;;;;23.86;53.80;100665.69;5023683;28;20039;-68
2021/03/10 09:59:58;;;;;;;28.35;6.20;;;;;;;23.48;54.34;100659.16;5016900;28;20089;-68
2021/03/10 10:02:29;;;;;;;21.92;4.80;;;;;;;22.84;55.65;100659.72;5015719;28;20048;-67
2021/03/10 10:04:59;;;;;;;18.45;5.00;;;;;;;22.46;56.31;100665.56;5011254;28;20034;-67
2021/03/10 10:07:30;;;;;;;22.60;5.68;;;;;;;22.27;56.73;100662.63;5011360;28;20038;-68
2021/03/10 10:09:59;;;;;;;32.75;7.25;;;;;;;22.47;56.55;100670.00;5010921;28;20091;-67
2021/03/10 10:12:30;;;;;;;28.75;6.07;;;;;;;22.31;57.24;100676.88;5011173;28;20048;-67
2021/03/10 10:14:57;;;;;;;26.20;8.75;;;;;;;22.44;57.16;100672.81;5010287;28;20038;-68
2021/03/10 10:17:25;;;;;;;23.88;5.95;;;;;;;22.72;56.95;100668.19;5015670;28;20399;-67
2021/03/10 10:19:52;;;;;;;25.38;5.88;;;;;;;22.73;56.50;100667.31;5010014;28;20061;-67
2021/03/10 10:22:19;;;;;;;25.98;7.20;;;;;;;22.71;57.39;100671.81;5011310;28;20129;-68
2021/03/10 10:24:46;;;;;;;28.98;6.30;;;;;;;23.18;56.73;100666.53;5012654;28;20048;-67
2021/03/10 10:27:13;;;;;;;26.90;7.18;;;;;;;23.60;56.05;100666.75;5010396;28;20117;-67
2021/03/10 10:29:41;;;;;;;21.83;6.15;;;;;;;23.65;55.56;100656.66;5006118;28;20040;-68
2021/03/10 10:32:08;;;;;;;22.40;6.30;;;;;;;23.21;55.43;100651.16;5011145;28;20038;-68
2021/03/10 10:34:35;;;;;;;24.45;6.95;;;;;;;23.24;55.64;100656.41;5006964;28;20109;-68
2021/03/10 10:37:02;;;;;;;20.40;5.80;;;;;;;23.12;55.49;100664.09;5007920;28;20033;-68
2021/03/10 10:39:29;;;;;;;18.80;4.95;;;;;;;23.32;55.46;100674.97;5006901;28;20407;-68
2021/03/10 10:41:56;;;;;;;28.88;7.43;;;;;;;23.32;55.16;100673.16;5008153;28;20041;-70
2021/03/10 10:44:25;;;;;;;24.30;5.75;;;;;;;23.47;54.94;100671.75;5014497;28;20042;-70
2021/03/10 10:46:55;;;;;;;23.65;6.00;;;;;;;23.83;54.35;100664.88;5008984;28;20451;-70
2021/03/10 10:49:24;;;;;;;20.30;5.72;;;;;;;24.27;53.60;100669.41;5011020;28;20125;-69
2021/03/10 10:51:52;;;;;;;22.95;6.75;;;;;;;23.94;53.49;100671.66;5009842;28;20061;-69
2021/03/10 10:54:20;;;;;;;16.48;4.95;;;;;;;23.56;54.14;100663.31;5010300;28;20068;-68
2021/03/10 10:56:47;;;;;;;32.97;7.82;;;;;;;23.76;54.17;100676.84;5009412;28;20182;-68
2021/03/10 10:59:14;;;;;;;20.48;7.43;;;;;;;23.75;53.95;100675.13;5010429;28;20129;-68
2021/03/10 11:01:41;;;;;;;26.25;9.32;;;;;;;23.39;54.65;100672.00;5010171;28;20116;-68
2021/03/10 11:04:09;;;;;;;24.50;6.25;;;;;;;23.13;54.88;100671.22;5010984;28;20095;-68
2021/03/10 11:06:37;;;;;;;23.02;7.22;;;;;;;22.81;55.42;100677.81;5010107;28;20080;-68
2021/03/10 11:09:05;;;;;;;33.00;11.15;;;;;;;22.68;55.80;100669.25;5011130;28;20520;-68
2021/03/10 11:11:32;;;;;;;22.73;5.93;;;;;;;22.55;56.00;100671.50;5010356;28;20096;-68
2021/03/10 11:14:00;;;;;;;17.25;5.63;;;;;;;22.59;55.87;100669.56;5010643;28;20129;-68
2021/03/10 11:16:27;;;;;;;20.52;6.57;;;;;;;22.66;55.76;100663.03;5010442;28;20038;-68
2021/03/10 11:18:54;;;;;;;23.33;4.88;;;;;;;22.48;56.11;100666.38;5009968;28;20525;-68
2021/03/10 11:21:22;;;;;;;21.73;6.72;;;;;;;22.58;56.13;100674.06;5010184;28;20034;-68